sensor_id;sensor_type;location;lat;lon;timestamp;P1;durP1;ratioP1;P2;durP2;ratioP2
31126;SDS011;17775;57.948;12.514;2023-07-31T00:01:35;2.50;;;1.58;;
31126;SDS011;17775;57.948;12.514;2023-07-31T00:04:02;3.05;;;1.58;;
31126;SDS011;17775;57.948;12.514;2023-07-31T00:06:29;5.75;;;2.10;;
31126;SDS011;17775;57.948;12.514;2023-07-31T00:08:55;5.13;;;1.23;;
31126;SDS011;17775;57.948;12.514;2023-07-31T00:11:22;2.97;;;1.73;;
31126;SDS011;17775;57.948;12.514;2023-07-31T00:13:53;5.57;;;1.70;;
31126;SDS011;17775;57.948;12.514;2023-07-31T00:16:19;4.53;;;1.55;;
31126;SDS011;17775;57.948;12.514;2023-07-31T00:18:46;4.68;;;1.52;;
31126;SDS011;17775;57.948;12.514;2023-07-31T00:21:13;3.95;;;1.30;;
31126;SDS011;17775;57.948;12.514;2023-07-31T00:23:39;4.45;;;1.63;;
31126;SDS011;17775;57.948;12.514;2023-07-31T00:26:06;3.28;;;1.42;;
31126;SDS011;17775;57.948;12.514;2023-07-31T00:28:32;4.00;;;1.48;;
31126;SDS011;17775;57.948;12.514;2023-07-31T00:30:59;3.45;;;1.48;;
31126;SDS011;17775;57.948;12.514;2023-07-31T00:33:28;4.10;;;1.35;;
31126;SDS011;17775;57.948;12.514;2023-07-31T00:35:54;3.47;;;1.30;;
31126;SDS011;17775;57.948;12.514;2023-07-31T00:38:21;2.47;;;1.45;;
31126;SDS011;17775;57.948;12.514;2023-07-31T00:40:47;2.20;;;1.30;;
31126;SDS011;17775;57.948;12.514;2023-07-31T00:43:14;3.28;;;1.65;;
31126;SDS011;17775;57.948;12.514;2023-07-31T00:45:40;2.65;;;1.38;;
31126;SDS011;17775;57.948;12.514;2023-07-31T00:48:07;3.22;;;1.60;;
31126;SDS011;17775;57.948;12.514;2023-07-31T00:50:34;2.75;;;1.35;;
31126;SDS011;17775;57.948;12.514;2023-07-31T00:53:01;3.13;;;1.30;;
31126;SDS011;17775;57.948;12.514;2023-07-31T00:55:27;7.15;;;2.28;;
31126;SDS011;17775;57.948;12.514;2023-07-31T00:57:54;5.90;;;1.75;;
31126;SDS011;17775;57.948;12.514;2023-07-31T01:00:22;5.80;;;1.30;;
31126;SDS011;17775;57.948;12.514;2023-07-31T01:02:49;3.33;;;1.52;;
31126;SDS011;17775;57.948;12.514;2023-07-31T01:05:17;5.65;;;1.85;;
31126;SDS011;17775;57.948;12.514;2023-07-31T01:10:16;4.93;;;1.75;;
31126;SDS011;17775;57.948;12.514;2023-07-31T01:12:43;3.13;;;1.67;;
31126;SDS011;17775;57.948;12.514;2023-07-31T01:15:10;3.13;;;1.40;;
31126;SDS011;17775;57.948;12.514;2023-07-31T01:17:37;4.65;;;1.30;;
31126;SDS011;17775;57.948;12.514;2023-07-31T01:20:08;4.47;;;1.60;;
31126;SDS011;17775;57.948;12.514;2023-07-31T01:25:18;3.00;;;1.48;;
31126;SDS011;17775;57.948;12.514;2023-07-31T01:27:51;2.85;;;1.55;;
31126;SDS011;17775;57.948;12.514;2023-07-31T01:30:22;7.65;;;2.28;;
31126;SDS011;17775;57.948;12.514;2023-07-31T01:32:50;3.38;;;1.70;;
31126;SDS011;17775;57.948;12.514;2023-07-31T01:35:17;5.15;;;1.90;;
31126;SDS011;17775;57.948;12.514;2023-07-31T01:37:45;5.45;;;1.80;;
31126;SDS011;17775;57.948;12.514;2023-07-31T01:40:11;4.72;;;1.70;;
31126;SDS011;17775;57.948;12.514;2023-07-31T01:42:38;6.35;;;2.10;;
31126;SDS011;17775;57.948;12.514;2023-07-31T01:45:06;3.97;;;1.85;;
31126;SDS011;17775;57.948;12.514;2023-07-31T01:47:33;3.67;;;1.63;;
31126;SDS011;17775;57.948;12.514;2023-07-31T01:49:59;7.25;;;1.92;;
31126;SDS011;17775;57.948;12.514;2023-07-31T01:52:26;5.38;;;1.75;;
31126;SDS011;17775;57.948;12.514;2023-07-31T01:54:52;4.78;;;1.70;;
31126;SDS011;17775;57.948;12.514;2023-07-31T01:57:19;5.90;;;1.80;;
31126;SDS011;17775;57.948;12.514;2023-07-31T01:59:45;6.63;;;1.52;;
31126;SDS011;17775;57.948;12.514;2023-07-31T02:02:12;2.58;;;1.40;;
31126;SDS011;17775;57.948;12.514;2023-07-31T02:04:39;4.50;;;1.67;;
31126;SDS011;17775;57.948;12.514;2023-07-31T02:07:07;2.10;;;1.30;;
31126;SDS011;17775;57.948;12.514;2023-07-31T02:09:33;4.55;;;1.95;;
31126;SDS011;17775;57.948;12.514;2023-07-31T02:12:00;3.00;;;1.40;;
31126;SDS011;17775;57.948;12.514;2023-07-31T02:14:26;6.85;;;1.88;;
31126;SDS011;17775;57.948;12.514;2023-07-31T02:16:53;2.92;;;1.50;;
31126;SDS011;17775;57.948;12.514;2023-07-31T02:19:19;4.25;;;1.35;;
31126;SDS011;17775;57.948;12.514;2023-07-31T02:21:46;2.97;;;1.52;;
31126;SDS011;17775;57.948;12.514;2023-07-31T02:24:12;3.58;;;1.27;;
31126;SDS011;17775;57.948;12.514;2023-07-31T02:26:41;3.13;;;1.50;;
31126;SDS011;17775;57.948;12.514;2023-07-31T02:29:08;2.70;;;1.30;;
31126;SDS011;17775;57.948;12.514;2023-07-31T02:31:35;4.38;;;1.50;;
31126;SDS011;17775;57.948;12.514;2023-07-31T02:34:02;5.10;;;1.55;;
31126;SDS011;17775;57.948;12.514;2023-07-31T02:36:28;5.05;;;1.80;;
31126;SDS011;17775;57.948;12.514;2023-07-31T02:38:55;3.78;;;1.50;;
31126;SDS011;17775;57.948;12.514;2023-07-31T02:41:21;3.63;;;1.75;;
31126;SDS011;17775;57.948;12.514;2023-07-31T02:43:48;7.70;;;1.63;;
31126;SDS011;17775;57.948;12.514;2023-07-31T02:46:14;2.40;;;1.42;;
31126;SDS011;17775;57.948;12.514;2023-07-31T02:48:41;2.05;;;1.55;;
31126;SDS011;17775;57.948;12.514;2023-07-31T02:51:07;3.53;;;1.40;;
31126;SDS011;17775;57.948;12.514;2023-07-31T02:53:34;4.07;;;1.38;;
31126;SDS011;17775;57.948;12.514;2023-07-31T02:56:00;3.05;;;1.60;;
31126;SDS011;17775;57.948;12.514;2023-07-31T02:58:27;5.80;;;1.80;;
31126;SDS011;17775;57.948;12.514;2023-07-31T03:00:53;4.88;;;2.30;;
31126;SDS011;17775;57.948;12.514;2023-07-31T03:03:20;3.80;;;1.73;;
31126;SDS011;17775;57.948;12.514;2023-07-31T03:05:46;2.70;;;1.77;;
31126;SDS011;17775;57.948;12.514;2023-07-31T03:08:15;13.05;;;1.73;;
31126;SDS011;17775;57.948;12.514;2023-07-31T03:10:42;2.72;;;1.27;;
31126;SDS011;17775;57.948;12.514;2023-07-31T03:13:08;2.17;;;1.58;;
31126;SDS011;17775;57.948;12.514;2023-07-31T03:15:34;4.18;;;1.60;;
31126;SDS011;17775;57.948;12.514;2023-07-31T03:18:01;3.55;;;1.75;;
31126;SDS011;17775;57.948;12.514;2023-07-31T03:20:28;5.63;;;1.65;;
31126;SDS011;17775;57.948;12.514;2023-07-31T03:22:54;3.30;;;1.60;;
31126;SDS011;17775;57.948;12.514;2023-07-31T03:25:21;3.97;;;1.73;;
31126;SDS011;17775;57.948;12.514;2023-07-31T03:27:47;2.85;;;1.65;;
31126;SDS011;17775;57.948;12.514;2023-07-31T03:30:14;5.30;;;1.92;;
31126;SDS011;17775;57.948;12.514;2023-07-31T03:32:40;3.50;;;2.03;;
31126;SDS011;17775;57.948;12.514;2023-07-31T03:35:07;4.15;;;1.90;;
31126;SDS011;17775;57.948;12.514;2023-07-31T03:37:33;6.45;;;1.83;;
31126;SDS011;17775;57.948;12.514;2023-07-31T03:40:00;3.20;;;1.73;;
31126;SDS011;17775;57.948;12.514;2023-07-31T03:42:26;3.55;;;1.50;;
31126;SDS011;17775;57.948;12.514;2023-07-31T03:44:53;3.97;;;1.73;;
31126;SDS011;17775;57.948;12.514;2023-07-31T03:47:19;3.03;;;1.85;;
31126;SDS011;17775;57.948;12.514;2023-07-31T03:49:48;5.07;;;1.90;;
31126;SDS011;17775;57.948;12.514;2023-07-31T03:52:15;3.08;;;1.67;;
31126;SDS011;17775;57.948;12.514;2023-07-31T03:54:42;5.75;;;2.10;;
31126;SDS011;17775;57.948;12.514;2023-07-31T03:57:10;3.72;;;1.63;;
31126;SDS011;17775;57.948;12.514;2023-07-31T03:59:37;5.93;;;2.20;;
31126;SDS011;17775;57.948;12.514;2023-07-31T04:02:07;4.13;;;1.80;;
31126;SDS011;17775;57.948;12.514;2023-07-31T04:04:36;6.72;;;2.03;;
31126;SDS011;17775;57.948;12.514;2023-07-31T04:07:03;6.43;;;2.28;;
31126;SDS011;17775;57.948;12.514;2023-07-31T04:09:29;4.30;;;1.90;;
31126;SDS011;17775;57.948;12.514;2023-07-31T04:11:56;3.65;;;1.83;;
31126;SDS011;17775;57.948;12.514;2023-07-31T04:14:22;4.60;;;1.75;;
31126;SDS011;17775;57.948;12.514;2023-07-31T04:16:50;4.97;;;1.90;;
31126;SDS011;17775;57.948;12.514;2023-07-31T04:19:17;7.68;;;1.85;;
31126;SDS011;17775;57.948;12.514;2023-07-31T04:21:43;3.53;;;2.08;;
31126;SDS011;17775;57.948;12.514;2023-07-31T04:24:12;6.20;;;2.08;;
31126;SDS011;17775;57.948;12.514;2023-07-31T04:26:39;3.63;;;1.83;;
31126;SDS011;17775;57.948;12.514;2023-07-31T04:29:05;6.40;;;2.85;;
31126;SDS011;17775;57.948;12.514;2023-07-31T04:31:33;4.95;;;2.20;;
31126;SDS011;17775;57.948;12.514;2023-07-31T04:34:03;5.68;;;2.15;;
31126;SDS011;17775;57.948;12.514;2023-07-31T04:36:29;4.45;;;2.55;;
31126;SDS011;17775;57.948;12.514;2023-07-31T04:39:02;2.80;;;2.00;;
31126;SDS011;17775;57.948;12.514;2023-07-31T04:41:29;6.03;;;2.50;;
31126;SDS011;17775;57.948;12.514;2023-07-31T04:43:55;5.97;;;2.20;;
31126;SDS011;17775;57.948;12.514;2023-07-31T04:46:22;3.95;;;1.92;;
31126;SDS011;17775;57.948;12.514;2023-07-31T04:48:48;2.70;;;2.10;;
31126;SDS011;17775;57.948;12.514;2023-07-31T04:51:15;4.00;;;2.03;;
31126;SDS011;17775;57.948;12.514;2023-07-31T04:53:41;4.47;;;2.13;;
31126;SDS011;17775;57.948;12.514;2023-07-31T04:56:08;5.55;;;1.85;;
31126;SDS011;17775;57.948;12.514;2023-07-31T04:58:36;3.63;;;1.77;;
31126;SDS011;17775;57.948;12.514;2023-07-31T05:01:03;7.28;;;2.10;;
31126;SDS011;17775;57.948;12.514;2023-07-31T05:03:29;7.20;;;2.00;;
31126;SDS011;17775;57.948;12.514;2023-07-31T05:05:56;7.32;;;2.45;;
31126;SDS011;17775;57.948;12.514;2023-07-31T05:08:22;4.20;;;2.35;;
31126;SDS011;17775;57.948;12.514;2023-07-31T05:10:49;3.53;;;1.80;;
31126;SDS011;17775;57.948;12.514;2023-07-31T05:13:16;5.85;;;2.17;;
31126;SDS011;17775;57.948;12.514;2023-07-31T05:15:42;4.97;;;2.42;;
31126;SDS011;17775;57.948;12.514;2023-07-31T05:18:09;7.93;;;2.22;;
31126;SDS011;17775;57.948;12.514;2023-07-31T05:20:35;7.53;;;2.45;;
31126;SDS011;17775;57.948;12.514;2023-07-31T05:23:02;3.10;;;1.85;;
31126;SDS011;17775;57.948;12.514;2023-07-31T05:25:29;3.95;;;1.40;;
31126;SDS011;17775;57.948;12.514;2023-07-31T05:27:55;4.07;;;1.80;;
31126;SDS011;17775;57.948;12.514;2023-07-31T05:30:22;4.47;;;1.38;;
31126;SDS011;17775;57.948;12.514;2023-07-31T05:32:48;3.80;;;1.65;;
31126;SDS011;17775;57.948;12.514;2023-07-31T05:35:15;4.50;;;2.15;;
31126;SDS011;17775;57.948;12.514;2023-07-31T05:37:41;6.05;;;1.80;;
31126;SDS011;17775;57.948;12.514;2023-07-31T05:40:10;5.85;;;1.70;;
31126;SDS011;17775;57.948;12.514;2023-07-31T05:42:37;4.13;;;1.58;;
31126;SDS011;17775;57.948;12.514;2023-07-31T05:45:05;4.85;;;1.50;;
31126;SDS011;17775;57.948;12.514;2023-07-31T05:47:32;5.10;;;2.00;;
31126;SDS011;17775;57.948;12.514;2023-07-31T05:49:58;3.03;;;1.25;;
31126;SDS011;17775;57.948;12.514;2023-07-31T05:52:25;4.30;;;1.92;;
31126;SDS011;17775;57.948;12.514;2023-07-31T05:54:51;5.05;;;1.80;;
31126;SDS011;17775;57.948;12.514;2023-07-31T05:57:18;4.82;;;1.63;;
31126;SDS011;17775;57.948;12.514;2023-07-31T05:59:45;5.35;;;1.70;;
31126;SDS011;17775;57.948;12.514;2023-07-31T06:02:11;4.57;;;2.13;;
31126;SDS011;17775;57.948;12.514;2023-07-31T06:04:38;3.40;;;1.85;;
31126;SDS011;17775;57.948;12.514;2023-07-31T06:07:04;4.93;;;1.80;;
31126;SDS011;17775;57.948;12.514;2023-07-31T06:09:31;4.25;;;1.50;;
31126;SDS011;17775;57.948;12.514;2023-07-31T06:11:57;6.10;;;1.60;;
31126;SDS011;17775;57.948;12.514;2023-07-31T06:14:24;5.72;;;1.73;;
31126;SDS011;17775;57.948;12.514;2023-07-31T06:16:50;3.47;;;1.70;;
31126;SDS011;17775;57.948;12.514;2023-07-31T06:19:17;6.55;;;2.05;;
31126;SDS011;17775;57.948;12.514;2023-07-31T06:21:44;4.07;;;1.85;;
31126;SDS011;17775;57.948;12.514;2023-07-31T06:24:10;7.53;;;2.17;;
31126;SDS011;17775;57.948;12.514;2023-07-31T06:26:38;4.68;;;1.80;;
31126;SDS011;17775;57.948;12.514;2023-07-31T06:29:05;7.85;;;1.85;;
31126;SDS011;17775;57.948;12.514;2023-07-31T06:31:31;8.18;;;2.17;;
31126;SDS011;17775;57.948;12.514;2023-07-31T06:33:58;5.70;;;2.35;;
31126;SDS011;17775;57.948;12.514;2023-07-31T06:36:24;4.28;;;2.25;;
31126;SDS011;17775;57.948;12.514;2023-07-31T06:38:51;8.73;;;2.35;;
31126;SDS011;17775;57.948;12.514;2023-07-31T06:41:18;9.52;;;2.42;;
31126;SDS011;17775;57.948;12.514;2023-07-31T06:43:44;5.53;;;1.90;;
31126;SDS011;17775;57.948;12.514;2023-07-31T06:46:11;7.55;;;1.70;;
31126;SDS011;17775;57.948;12.514;2023-07-31T06:48:37;5.95;;;2.03;;
31126;SDS011;17775;57.948;12.514;2023-07-31T06:51:04;6.45;;;1.83;;
31126;SDS011;17775;57.948;12.514;2023-07-31T06:53:30;6.18;;;1.73;;
31126;SDS011;17775;57.948;12.514;2023-07-31T06:55:57;7.40;;;1.63;;
31126;SDS011;17775;57.948;12.514;2023-07-31T06:58:23;5.20;;;2.22;;
31126;SDS011;17775;57.948;12.514;2023-07-31T07:00:52;7.25;;;2.15;;
31126;SDS011;17775;57.948;12.514;2023-07-31T07:03:18;5.25;;;1.95;;
31126;SDS011;17775;57.948;12.514;2023-07-31T07:05:45;6.15;;;1.85;;
31126;SDS011;17775;57.948;12.514;2023-07-31T07:08:12;6.25;;;1.70;;
31126;SDS011;17775;57.948;12.514;2023-07-31T07:10:38;3.13;;;1.20;;
31126;SDS011;17775;57.948;12.514;2023-07-31T07:13:05;8.60;;;2.13;;
31126;SDS011;17775;57.948;12.514;2023-07-31T07:15:31;6.35;;;1.48;;
31126;SDS011;17775;57.948;12.514;2023-07-31T07:17:58;3.67;;;1.60;;
31126;SDS011;17775;57.948;12.514;2023-07-31T07:20:24;9.13;;;1.75;;
31126;SDS011;17775;57.948;12.514;2023-07-31T07:22:51;7.07;;;1.80;;
31126;SDS011;17775;57.948;12.514;2023-07-31T07:25:17;8.07;;;1.90;;
31126;SDS011;17775;57.948;12.514;2023-07-31T07:27:44;8.50;;;1.75;;
31126;SDS011;17775;57.948;12.514;2023-07-31T07:30:10;7.90;;;1.85;;
31126;SDS011;17775;57.948;12.514;2023-07-31T07:32:37;10.10;;;1.65;;
31126;SDS011;17775;57.948;12.514;2023-07-31T07:35:04;8.27;;;1.77;;
31126;SDS011;17775;57.948;12.514;2023-07-31T07:37:31;6.47;;;1.55;;
31126;SDS011;17775;57.948;12.514;2023-07-31T07:39:59;9.13;;;1.80;;
31126;SDS011;17775;57.948;12.514;2023-07-31T07:42:25;9.07;;;1.77;;
31126;SDS011;17775;57.948;12.514;2023-07-31T07:44:52;6.20;;;1.90;;
31126;SDS011;17775;57.948;12.514;2023-07-31T07:47:18;5.43;;;1.23;;
31126;SDS011;17775;57.948;12.514;2023-07-31T07:49:45;11.05;;;2.17;;
31126;SDS011;17775;57.948;12.514;2023-07-31T07:52:18;8.07;;;2.13;;
31126;SDS011;17775;57.948;12.514;2023-07-31T07:54:45;9.05;;;2.13;;
31126;SDS011;17775;57.948;12.514;2023-07-31T07:57:11;7.07;;;1.55;;
31126;SDS011;17775;57.948;12.514;2023-07-31T07:59:38;7.35;;;1.92;;
31126;SDS011;17775;57.948;12.514;2023-07-31T08:02:04;5.07;;;1.52;;
31126;SDS011;17775;57.948;12.514;2023-07-31T08:04:31;6.97;;;1.65;;
31126;SDS011;17775;57.948;12.514;2023-07-31T08:06:58;5.43;;;1.63;;
31126;SDS011;17775;57.948;12.514;2023-07-31T08:09:25;9.07;;;2.33;;
31126;SDS011;17775;57.948;12.514;2023-07-31T08:11:52;7.43;;;2.13;;
31126;SDS011;17775;57.948;12.514;2023-07-31T08:14:18;7.65;;;1.98;;
31126;SDS011;17775;57.948;12.514;2023-07-31T08:16:45;8.18;;;1.65;;
31126;SDS011;17775;57.948;12.514;2023-07-31T08:19:15;9.85;;;1.50;;
31126;SDS011;17775;57.948;12.514;2023-07-31T08:21:42;3.83;;;1.30;;
31126;SDS011;17775;57.948;12.514;2023-07-31T08:24:09;6.45;;;1.55;;
31126;SDS011;17775;57.948;12.514;2023-07-31T08:26:35;6.82;;;2.38;;
31126;SDS011;17775;57.948;12.514;2023-07-31T08:29:02;6.05;;;1.80;;
31126;SDS011;17775;57.948;12.514;2023-07-31T08:31:28;7.88;;;1.65;;
31126;SDS011;17775;57.948;12.514;2023-07-31T08:33:55;5.75;;;1.70;;
31126;SDS011;17775;57.948;12.514;2023-07-31T08:36:22;10.27;;;2.20;;
31126;SDS011;17775;57.948;12.514;2023-07-31T08:38:48;9.25;;;1.42;;
31126;SDS011;17775;57.948;12.514;2023-07-31T08:41:16;5.90;;;1.80;;
31126;SDS011;17775;57.948;12.514;2023-07-31T08:43:45;7.00;;;1.75;;
31126;SDS011;17775;57.948;12.514;2023-07-31T08:46:12;9.75;;;2.15;;
31126;SDS011;17775;57.948;12.514;2023-07-31T08:48:41;8.40;;;1.83;;
31126;SDS011;17775;57.948;12.514;2023-07-31T08:51:07;6.47;;;1.95;;
31126;SDS011;17775;57.948;12.514;2023-07-31T08:53:34;6.93;;;1.52;;
31126;SDS011;17775;57.948;12.514;2023-07-31T08:56:01;10.18;;;3.15;;
31126;SDS011;17775;57.948;12.514;2023-07-31T08:58:31;7.70;;;1.80;;
31126;SDS011;17775;57.948;12.514;2023-07-31T09:00:58;6.03;;;1.40;;
31126;SDS011;17775;57.948;12.514;2023-07-31T09:03:27;5.75;;;1.80;;
31126;SDS011;17775;57.948;12.514;2023-07-31T09:05:55;7.63;;;1.70;;
31126;SDS011;17775;57.948;12.514;2023-07-31T09:08:26;5.38;;;1.52;;
31126;SDS011;17775;57.948;12.514;2023-07-31T09:10:58;5.68;;;1.55;;
31126;SDS011;17775;57.948;12.514;2023-07-31T09:13:25;7.35;;;1.40;;
31126;SDS011;17775;57.948;12.514;2023-07-31T09:15:51;9.35;;;1.63;;
31126;SDS011;17775;57.948;12.514;2023-07-31T09:18:18;6.82;;;1.77;;
31126;SDS011;17775;57.948;12.514;2023-07-31T09:20:46;4.70;;;1.58;;
31126;SDS011;17775;57.948;12.514;2023-07-31T09:23:26;6.13;;;1.60;;
31126;SDS011;17775;57.948;12.514;2023-07-31T09:25:54;6.45;;;1.52;;
31126;SDS011;17775;57.948;12.514;2023-07-31T09:28:20;4.68;;;1.50;;
31126;SDS011;17775;57.948;12.514;2023-07-31T09:30:57;9.25;;;2.63;;
31126;SDS011;17775;57.948;12.514;2023-07-31T09:33:23;5.72;;;1.73;;
31126;SDS011;17775;57.948;12.514;2023-07-31T09:35:50;5.50;;;1.20;;
31126;SDS011;17775;57.948;12.514;2023-07-31T09:38:16;5.32;;;1.38;;
31126;SDS011;17775;57.948;12.514;2023-07-31T09:40:45;4.88;;;1.10;;
31126;SDS011;17775;57.948;12.514;2023-07-31T09:43:12;2.38;;;0.93;;
31126;SDS011;17775;57.948;12.514;2023-07-31T09:45:40;2.97;;;0.90;;
31126;SDS011;17775;57.948;12.514;2023-07-31T09:48:08;5.78;;;0.88;;
31126;SDS011;17775;57.948;12.514;2023-07-31T09:50:38;4.95;;;1.25;;
31126;SDS011;17775;57.948;12.514;2023-07-31T09:53:06;2.03;;;0.65;;
31126;SDS011;17775;57.948;12.514;2023-07-31T09:55:33;2.33;;;0.70;;
31126;SDS011;17775;57.948;12.514;2023-07-31T09:58:04;1.88;;;0.60;;
31126;SDS011;17775;57.948;12.514;2023-07-31T10:00:31;4.72;;;0.82;;
31126;SDS011;17775;57.948;12.514;2023-07-31T10:02:58;1.23;;;0.80;;
31126;SDS011;17775;57.948;12.514;2023-07-31T10:05:25;3.20;;;0.77;;
31126;SDS011;17775;57.948;12.514;2023-07-31T10:07:56;2.85;;;0.70;;
31126;SDS011;17775;57.948;12.514;2023-07-31T10:10:23;1.92;;;0.68;;
31126;SDS011;17775;57.948;12.514;2023-07-31T10:12:54;1.88;;;0.60;;
31126;SDS011;17775;57.948;12.514;2023-07-31T10:15:22;1.92;;;0.60;;
31126;SDS011;17775;57.948;12.514;2023-07-31T10:17:49;2.60;;;0.75;;
31126;SDS011;17775;57.948;12.514;2023-07-31T10:20:16;3.08;;;0.75;;
31126;SDS011;17775;57.948;12.514;2023-07-31T10:22:43;2.47;;;0.80;;
31126;SDS011;17775;57.948;12.514;2023-07-31T10:25:12;1.95;;;0.80;;
31126;SDS011;17775;57.948;12.514;2023-07-31T10:27:38;2.13;;;0.77;;
31126;SDS011;17775;57.948;12.514;2023-07-31T10:30:05;2.72;;;0.77;;
31126;SDS011;17775;57.948;12.514;2023-07-31T10:32:33;2.80;;;0.77;;
31126;SDS011;17775;57.948;12.514;2023-07-31T10:35:01;4.07;;;0.88;;
31126;SDS011;17775;57.948;12.514;2023-07-31T10:37:29;3.63;;;0.80;;
31126;SDS011;17775;57.948;12.514;2023-07-31T10:44:57;3.55;;;0.98;;
31126;SDS011;17775;57.948;12.514;2023-07-31T10:47:24;1.55;;;0.70;;
31126;SDS011;17775;57.948;12.514;2023-07-31T10:49:51;1.65;;;0.60;;
31126;SDS011;17775;57.948;12.514;2023-07-31T10:52:20;2.22;;;0.50;;
31126;SDS011;17775;57.948;12.514;2023-07-31T10:57:39;2.45;;;0.70;;
31126;SDS011;17775;57.948;12.514;2023-07-31T11:02:55;2.08;;;0.40;;
31126;SDS011;17775;57.948;12.514;2023-07-31T11:05:26;1.17;;;0.60;;
31126;SDS011;17775;57.948;12.514;2023-07-31T11:08:25;1.33;;;0.50;;
31126;SDS011;17775;57.948;12.514;2023-07-31T11:13:28;0.85;;;0.50;;
31126;SDS011;17775;57.948;12.514;2023-07-31T11:15:58;1.13;;;0.40;;
31126;SDS011;17775;57.948;12.514;2023-07-31T11:18:28;1.77;;;0.70;;
31126;SDS011;17775;57.948;12.514;2023-07-31T11:20:54;1.20;;;0.50;;
31126;SDS011;17775;57.948;12.514;2023-07-31T11:23:21;2.95;;;0.43;;
31126;SDS011;17775;57.948;12.514;2023-07-31T11:25:49;1.05;;;0.55;;
31126;SDS011;17775;57.948;12.514;2023-07-31T11:28:16;1.27;;;0.47;;
31126;SDS011;17775;57.948;12.514;2023-07-31T11:30:44;1.65;;;0.50;;
31126;SDS011;17775;57.948;12.514;2023-07-31T11:33:11;3.25;;;0.50;;
31126;SDS011;17775;57.948;12.514;2023-07-31T11:35:45;0.73;;;0.30;;
31126;SDS011;17775;57.948;12.514;2023-07-31T11:38:12;2.08;;;0.40;;
31126;SDS011;17775;57.948;12.514;2023-07-31T11:40:46;2.40;;;0.50;;
31126;SDS011;17775;57.948;12.514;2023-07-31T11:43:13;1.02;;;0.40;;
31126;SDS011;17775;57.948;12.514;2023-07-31T11:45:46;1.10;;;0.50;;
31126;SDS011;17775;57.948;12.514;2023-07-31T11:48:23;0.70;;;0.45;;
31126;SDS011;17775;57.948;12.514;2023-07-31T11:50:50;1.05;;;0.40;;
31126;SDS011;17775;57.948;12.514;2023-07-31T11:53:19;0.50;;;0.40;;
31126;SDS011;17775;57.948;12.514;2023-07-31T11:55:46;2.40;;;0.50;;
31126;SDS011;17775;57.948;12.514;2023-07-31T11:58:13;0.90;;;0.50;;
31126;SDS011;17775;57.948;12.514;2023-07-31T12:00:41;0.77;;;0.40;;
31126;SDS011;17775;57.948;12.514;2023-07-31T12:03:07;1.00;;;0.30;;
31126;SDS011;17775;57.948;12.514;2023-07-31T12:05:34;1.05;;;0.30;;
31126;SDS011;17775;57.948;12.514;2023-07-31T12:08:01;1.48;;;0.40;;
31126;SDS011;17775;57.948;12.514;2023-07-31T12:10:34;2.40;;;0.90;;
31126;SDS011;17775;57.948;12.514;2023-07-31T12:18:07;0.82;;;0.30;;
31126;SDS011;17775;57.948;12.514;2023-07-31T12:20:33;1.58;;;0.40;;
31126;SDS011;17775;57.948;12.514;2023-07-31T12:23:00;0.50;;;0.30;;
31126;SDS011;17775;57.948;12.514;2023-07-31T12:25:33;0.95;;;0.30;;
31126;SDS011;17775;57.948;12.514;2023-07-31T12:28:04;1.58;;;0.38;;
31126;SDS011;17775;57.948;12.514;2023-07-31T12:30:34;1.63;;;0.40;;
31126;SDS011;17775;57.948;12.514;2023-07-31T12:33:04;1.73;;;0.55;;
31126;SDS011;17775;57.948;12.514;2023-07-31T12:38:00;2.28;;;0.50;;
31126;SDS011;17775;57.948;12.514;2023-07-31T12:40:30;0.40;;;0.30;;
31126;SDS011;17775;57.948;12.514;2023-07-31T12:45:24;4.65;;;0.95;;
31126;SDS011;17775;57.948;12.514;2023-07-31T12:47:51;0.73;;;0.35;;
31126;SDS011;17775;57.948;12.514;2023-07-31T12:50:18;1.27;;;0.50;;
31126;SDS011;17775;57.948;12.514;2023-07-31T12:52:44;2.03;;;0.47;;
31126;SDS011;17775;57.948;12.514;2023-07-31T12:55:11;1.33;;;0.50;;
31126;SDS011;17775;57.948;12.514;2023-07-31T12:57:37;2.58;;;0.40;;
31126;SDS011;17775;57.948;12.514;2023-07-31T13:00:06;1.08;;;0.30;;
31126;SDS011;17775;57.948;12.514;2023-07-31T13:02:33;2.85;;;0.88;;
31126;SDS011;17775;57.948;12.514;2023-07-31T13:04:59;0.60;;;0.40;;
31126;SDS011;17775;57.948;12.514;2023-07-31T13:07:26;0.30;;;0.30;;
31126;SDS011;17775;57.948;12.514;2023-07-31T13:09:52;2.10;;;0.50;;
31126;SDS011;17775;57.948;12.514;2023-07-31T13:12:19;1.10;;;0.40;;
31126;SDS011;17775;57.948;12.514;2023-07-31T13:14:45;2.17;;;0.50;;
31126;SDS011;17775;57.948;12.514;2023-07-31T13:17:12;2.17;;;0.50;;
31126;SDS011;17775;57.948;12.514;2023-07-31T13:19:38;1.48;;;0.40;;
31126;SDS011;17775;57.948;12.514;2023-07-31T13:22:05;0.40;;;0.40;;
31126;SDS011;17775;57.948;12.514;2023-07-31T13:24:31;2.80;;;0.75;;
31126;SDS011;17775;57.948;12.514;2023-07-31T13:26:58;1.65;;;0.40;;
31126;SDS011;17775;57.948;12.514;2023-07-31T13:29:24;1.08;;;0.40;;
31126;SDS011;17775;57.948;12.514;2023-07-31T13:31:52;0.38;;;0.38;;
31126;SDS011;17775;57.948;12.514;2023-07-31T13:34:19;1.02;;;0.50;;
31126;SDS011;17775;57.948;12.514;2023-07-31T13:36:45;0.93;;;0.55;;
31126;SDS011;17775;57.948;12.514;2023-07-31T13:39:15;0.77;;;0.52;;
31126;SDS011;17775;57.948;12.514;2023-07-31T13:41:42;0.95;;;0.50;;
31126;SDS011;17775;57.948;12.514;2023-07-31T13:44:08;1.02;;;0.50;;
31126;SDS011;17775;57.948;12.514;2023-07-31T13:46:35;0.80;;;0.60;;
31126;SDS011;17775;57.948;12.514;2023-07-31T13:49:01;0.80;;;0.52;;
31126;SDS011;17775;57.948;12.514;2023-07-31T13:51:28;1.10;;;0.50;;
31126;SDS011;17775;57.948;12.514;2023-07-31T13:53:54;0.85;;;0.55;;
31126;SDS011;17775;57.948;12.514;2023-07-31T13:56:21;1.40;;;0.40;;
31126;SDS011;17775;57.948;12.514;2023-07-31T13:58:47;1.45;;;0.55;;
31126;SDS011;17775;57.948;12.514;2023-07-31T14:01:14;1.77;;;0.68;;
31126;SDS011;17775;57.948;12.514;2023-07-31T14:03:40;4.35;;;0.90;;
31126;SDS011;17775;57.948;12.514;2023-07-31T14:06:10;2.03;;;0.70;;
31126;SDS011;17775;57.948;12.514;2023-07-31T14:08:37;1.33;;;0.57;;
31126;SDS011;17775;57.948;12.514;2023-07-31T14:11:03;3.90;;;0.80;;
31126;SDS011;17775;57.948;12.514;2023-07-31T14:13:30;2.17;;;0.50;;
31126;SDS011;17775;57.948;12.514;2023-07-31T14:15:56;2.15;;;0.52;;
31126;SDS011;17775;57.948;12.514;2023-07-31T14:18:23;2.22;;;0.68;;
31126;SDS011;17775;57.948;12.514;2023-07-31T14:20:50;2.60;;;0.52;;
31126;SDS011;17775;57.948;12.514;2023-07-31T14:23:16;3.75;;;0.60;;
31126;SDS011;17775;57.948;12.514;2023-07-31T14:25:43;1.83;;;0.55;;
31126;SDS011;17775;57.948;12.514;2023-07-31T14:28:09;3.00;;;0.65;;
31126;SDS011;17775;57.948;12.514;2023-07-31T14:30:36;2.13;;;0.70;;
31126;SDS011;17775;57.948;12.514;2023-07-31T14:33:02;1.15;;;0.63;;
31126;SDS011;17775;57.948;12.514;2023-07-31T14:35:29;1.45;;;0.60;;
31126;SDS011;17775;57.948;12.514;2023-07-31T14:37:58;4.20;;;0.88;;
31126;SDS011;17775;57.948;12.514;2023-07-31T14:40:27;3.13;;;0.70;;
31126;SDS011;17775;57.948;12.514;2023-07-31T14:42:53;1.67;;;0.70;;
31126;SDS011;17775;57.948;12.514;2023-07-31T14:45:20;5.10;;;1.10;;
31126;SDS011;17775;57.948;12.514;2023-07-31T14:47:46;5.13;;;1.00;;
31126;SDS011;17775;57.948;12.514;2023-07-31T14:50:13;3.38;;;1.02;;
31126;SDS011;17775;57.948;12.514;2023-07-31T14:52:39;6.03;;;1.13;;
31126;SDS011;17775;57.948;12.514;2023-07-31T14:55:06;4.32;;;0.90;;
31126;SDS011;17775;57.948;12.514;2023-07-31T14:57:33;4.80;;;1.10;;
31126;SDS011;17775;57.948;12.514;2023-07-31T14:59:59;3.58;;;1.05;;
31126;SDS011;17775;57.948;12.514;2023-07-31T15:02:26;4.95;;;1.02;;